METAR Data
IDs: Format: Raw Decoded Include TAF

Data at: 1336 UTC 14 Dec 2019

PASL 141256Z AUTO 00000KT 10SM CLR M17/M19 A2958 RMK AO2 SLP009 T11721189 FZRANO
PASL 141230Z AUTO 00000KT 10SM SCT006 M17/M18 A2958 RMK AO2 FZRANO
PASL 141217Z AUTO 00000KT 10SM BKN006 M16/M18 A2958 RMK AO2 FZRANO
PASL 141156Z AUTO 00000KT 10SM FEW006 M16/M18 A2958 RMK AO2 SLP011 T11611178 11089 21161 50000 FZRANO
PASL 141056Z AUTO 00000KT 10SM BKN100 M15/M16 A2958 RMK AO2 SLP012 T11501161 FZRANO
PASL 140956Z AUTO 00000KT 10SM BKN100 M14/M16 A2958 RMK AO2 SLP011 T11391156 FZRANO
PASL 140856Z AUTO 00000KT 10SM BKN110 M13/M14 A2958 RMK AO2 SLP011 T11281144 410891161 55001 FZRANO
PASL 140722Z AUTO 00000KT 10SM SCT014 BKN085 M11/M12 A2958 RMK AO2 FZRANO
PASL 140656Z AUTO 00000KT 10SM OVC014 M09/M11 A2958 RMK AO2 SLP011 T10941106 FZRANO
PASL 140556Z AUTO 00000KT 10SM OVC012 M09/M11 A2958 RMK AO2 SLP012 60000 T10891106 11089 21094 50002 FZRANO
PASL 140456Z AUTO 18003KT 10SM OVC012 M09/M11 A2959 RMK AO2 SLP015 T10941106 FZRANO
PASL 140356Z AUTO 00000KT 10SM OVC014 M09/M11 A2958 RMK AO2 SLP011 T10891106 FZRANO
PASL 140256Z AUTO 00000KT 10SM BKN014 OVC070 M09/M11 A2958 RMK AO2 SNE10B30E42 SLP010 P0000 60000 T10941106 50012 FZRANO
PASL 140203Z AUTO 00000KT 9SM -SN BKN014 BKN023 OVC070 M09/M11 A2956 RMK AO2 P0000 FZRANO
PASL 140156Z AUTO 00000KT 9SM -SN BKN016 OVC023 M09/M11 A2957 RMK AO2 SNB34 SLP006 P0000 T10941106 FZRANO
PASL 140124Z AUTO 00000KT 10SM BKN016 BKN025 OVC090 M09/M11 A2956 RMK AO2 FZRANO
PASL 140056Z AUTO 00000KT 10SM SCT035 BKN065 M09/M11 A2954 RMK AO2 SNE04 SLP998 P0000 T10891106 FZRANO
PASL 140007Z AUTO 00000KT 9SM FEW026 OVC031 M09/M11 A2955 RMK AO2 SNE04 P0000 FZRANO
PASL 132356Z AUTO 00000KT 5SM -SN BR BKN027 BKN037 OVC050 M09/M11 A2955 RMK AO2 SLP002 P0000 60000 T10941106 11094 21156 51018 FZRANO
PASL 132353Z AUTO 00000KT 3SM -SN BR BKN027 BKN037 OVC050 M09/M11 A2955 RMK AO2 P0000 FZRANO
PASL 132347Z AUTO 00000KT 2 1/2SM -SN BR BKN027 BKN050 OVC065 M09/M11 A2955 RMK AO2 VIS 1 1/4V5 CIG 025V041 P0000 FZRANO
PASL 132256Z AUTO 00000KT 7SM -SN FEW034 SCT050 OVC070 M09/M11 A2954 RMK AO2 SNB51 SLP998 P0000 T10941111 FZRANO
PASL 132156Z AUTO 00000KT 10SM BKN065 OVC100 M10/M12 A2952 RMK AO2 SLP992 T11001117 FZRANO
PASL 132056Z AUTO 00000KT 10SM OVC075 M12/M13 A2950 RMK AO2 SLP983 T11171133 53027 FZRANO
PASL 131956Z AUTO 00000KT 10SM OVC080 M13/M14 A2947 RMK AO2 SLP973 T11281144 FZRANO
PASL 131756Z AUTO 00000KT 10SM CLR M16/M17 A2942 RMK AO2 SLP957 T11561172 11139 21161 53019 FZRANO
PASL 131734Z AUTO 00000KT 10SM SCT010 M16/M18 A2941 RMK AO2 FZRANO
PASL 131722Z AUTO 00000KT 10SM BKN010 M16/M18 A2940 RMK AO2 FZRANO
PASL 131636Z AUTO 00000KT 10SM SCT012 M16/M18 A2939 RMK AO2 FZRANO
PASL 131556Z AUTO 00000KT 10SM OVC012 M16/M18 A2938 RMK AO2 SLP944 T11611178 FZRANO
PASL 131356Z AUTO 00000KT 10SM CLR M15/M17 A2935 RMK AO2 SLP932 T11501167 FZRANO
PASL 131256Z AUTO 00000KT 10SM CLR M14/M16 A2934 RMK AO2 SLP930 T11391156 FZRANO
PASL 131156Z AUTO 00000KT 10SM CLR M14/M16 A2934 RMK AO2 SLP929 T11441156 11133 21161 51007 FZRANO
PASL 130956Z AUTO 00000KT 10SM CLR M16/M18 A2933 RMK AO2 SLP924 T11611178 FZRANO
PASL 130856Z AUTO 00000KT 10SM CLR M16/M17 A2932 RMK AO2 SLP922 T11561172 410781156 53004 FZRANO
PASL 130756Z AUTO 00000KT 10SM CLR M14/M16 A2931 RMK AO2 SLP919 T11441161 FZRANO
PASL 130656Z AUTO 00000KT 10SM CLR M14/M16 A2931 RMK AO2 SLP918 T11391156 FZRANO
PASL 130556Z AUTO 00000KT 10SM CLR M13/M15 A2930 RMK AO2 SLP917 T11331150 11100 21133 56007 FZRANO
PASL 130456Z AUTO 00000KT 9SM CLR M13/M14 A2931 RMK AO2 SLP920 T11281144 FZRANO
PASL 130356Z AUTO 00000KT 10SM CLR M13/M14 A2931 RMK AO2 SLP920 T11281139 FZRANO
PASL 130256Z AUTO 00000KT 10SM CLR M13/M14 A2933 RMK AO2 SLP924 T11281139 56001 FZRANO
PASL 130156Z AUTO 00000KT 10SM CLR M13/M14 A2933 RMK AO2 SLP924 T11281139 FZRANO